createdAt,value
2019-01-16T05:03:46.651Z,6.446533
2019-01-16T05:07:14.506Z,6.466675
2019-01-16T05:10:42.389Z,6.466675
2019-01-16T05:14:11.274Z,6.466675
2019-01-16T05:17:39.175Z,6.496887
2019-01-16T05:21:07.066Z,6.496887
2019-01-16T05:24:34.947Z,6.517029
2019-01-16T05:28:02.822Z,6.496887
2019-01-16T05:31:31.772Z,6.466675
2019-01-16T05:35:00.662Z,6.486816
2019-01-16T05:38:28.522Z,6.466675
2019-01-16T05:41:56.437Z,6.496887
2019-01-16T05:45:24.688Z,6.5271
2019-01-16T05:48:52.561Z,6.486816
2019-01-16T05:52:20.968Z,6.496887
2019-01-16T05:55:48.843Z,6.486816
2019-01-16T05:59:16.722Z,6.517029
2019-01-16T06:02:44.617Z,6.547241
2019-01-16T06:06:12.521Z,6.5271
2019-01-16T06:09:40.387Z,6.517029
2019-01-16T06:13:08.283Z,6.5271
2019-01-16T06:16:36.176Z,6.557312
2019-01-16T06:20:04.052Z,6.607666
2019-01-16T06:23:32.925Z,6.597595
2019-01-16T06:27:00.816Z,6.597595
2019-01-16T06:30:28.682Z,6.567383
2019-01-16T06:33:56.568Z,6.567383
2019-01-16T06:37:24.549Z,6.597595
2019-01-16T06:40:52.425Z,6.637878
2019-01-16T06:44:20.309Z,6.597595
2019-01-16T06:47:48.193Z,6.597595
2019-01-16T06:51:16.068Z,6.567383
2019-01-16T06:54:43.953Z,6.557312
2019-01-16T06:58:11.836Z,6.567383
2019-01-16T07:01:39.712Z,6.567383
2019-01-16T07:05:07.599Z,6.627808
2019-01-16T07:08:35.503Z,6.627808
2019-01-16T07:12:03.375Z,6.647949
2019-01-16T07:15:31.272Z,6.637878
2019-01-16T07:18:59.160Z,6.607666
2019-01-16T07:22:27.034Z,6.607666
2019-01-16T07:25:54.927Z,6.607666
2019-01-16T07:29:22.824Z,6.637878
2019-01-16T07:32:50.697Z,6.627808
2019-01-16T07:36:18.593Z,6.647949
2019-01-16T07:39:46.484Z,6.678162
2019-01-16T07:43:14.362Z,6.698303
2019-01-16T07:46:42.254Z,6.708374
2019-01-16T07:50:16.926Z,6.77887
2019-01-16T07:53:41.974Z,6.748657
2019-01-16T07:57:09.868Z,6.738586
2019-01-16T08:00:37.749Z,6.748657
2019-01-16T08:04:05.619Z,6.809082
2019-01-16T08:07:33.513Z,6.819153
2019-01-16T08:11:01.407Z,6.859436
2019-01-16T08:14:29.282Z,6.879578
2019-01-16T08:17:57.182Z,6.889648
2019-01-16T08:21:26.070Z,6.90979
2019-01-16T08:24:53.950Z,6.919861
2019-01-16T08:28:21.837Z,6.919861
2019-01-16T08:31:49.749Z,6.919861
2019-01-16T08:35:17.609Z,6.929932
2019-01-16T08:38:45.502Z,6.919861
2019-01-16T08:42:13.381Z,6.970215
2019-01-16T08:45:41.276Z,6.970215
2019-01-16T08:49:09.179Z,6.929932
2019-01-16T08:52:37.056Z,6.970215
2019-01-16T08:56:04.952Z,7.000427
2019-01-16T08:59:32.843Z,6.970215
2019-01-16T09:03:00.713Z,6.90979
2019-01-16T09:06:29.599Z,6.929932
2019-01-16T09:09:57.483Z,6.90979
2019-01-16T09:13:25.372Z,6.919861
2019-01-16T09:16:53.281Z,6.919861
2019-01-16T09:20:21.173Z,6.889648
2019-01-16T09:23:49.053Z,6.879578
2019-01-16T09:27:16.945Z,6.849365
2019-01-16T09:30:44.830Z,6.819153
2019-01-16T09:34:12.704Z,6.809082
2019-01-16T09:37:40.602Z,6.809082
2019-01-16T09:41:08.490Z,6.809082
2019-01-16T09:44:36.367Z,6.819153
2019-01-16T09:48:04.268Z,6.78894
2019-01-16T09:51:32.162Z,6.819153
2019-01-16T09:55:00.035Z,6.809082
2019-01-16T09:58:27.927Z,6.77887
2019-01-16T10:01:55.864Z,6.748657
2019-01-16T10:05:23.691Z,6.738586
2019-01-16T10:08:51.584Z,6.78894
2019-01-16T10:12:19.467Z,6.819153
2019-01-16T10:15:47.354Z,6.78894
2019-01-16T10:19:15.233Z,6.809082
2019-01-16T10:22:43.128Z,6.819153
2019-01-16T10:26:11.033Z,6.849365
2019-01-16T10:29:40.571Z,6.859436
2019-01-16T10:33:07.796Z,6.90979
2019-01-16T10:36:35.688Z,6.960144
2019-01-16T10:40:03.717Z,7.010498
2019-01-16T10:43:31.457Z,7.010498
2019-01-16T10:46:59.342Z,7.04071
2019-01-16T10:50:28.206Z,7.070923
2019-01-16T10:53:56.096Z,7.101135
2019-01-16T10:57:24.976Z,7.131348
2019-01-16T11:00:52.848Z,7.111206
2019-01-16T11:04:20.738Z,7.111206
2019-01-16T11:07:49.622Z,7.151489
2019-01-16T11:11:17.499Z,7.16156
2019-01-16T11:14:45.383Z,7.221985
2019-01-16T11:18:14.255Z,7.16156
2019-01-16T11:21:42.128Z,7.181702
2019-01-16T11:25:10.047Z,7.211914
2019-01-16T11:28:37.939Z,7.181702
2019-01-16T11:32:05.827Z,7.16156
2019-01-16T11:35:33.691Z,7.131348
2019-01-16T11:39:01.586Z,7.151489
2019-01-16T11:42:29.486Z,7.151489
2019-01-16T11:45:57.352Z,7.131348
2019-01-16T11:49:25.246Z,7.16156
2019-01-16T11:52:53.125Z,7.16156
2019-01-16T11:56:20.997Z,7.151489
2019-01-16T11:59:49.872Z,7.181702
2019-01-16T12:03:17.874Z,7.181702
2019-01-16T12:06:45.771Z,7.181702
2019-01-16T12:10:13.632Z,7.131348
2019-01-16T12:13:41.623Z,7.080994
2019-01-16T12:17:09.490Z,7.060852
2019-01-16T12:20:37.381Z,7.070923
2019-01-16T12:24:05.267Z,7.080994
2019-01-16T12:27:33.128Z,7.101135
2019-01-16T12:31:01.023Z,7.080994
2019-01-16T12:34:28.914Z,7.060852
2019-01-16T12:37:57.777Z,7.060852
2019-01-16T12:41:26.670Z,7.04071
2019-01-16T12:44:54.565Z,7.03064
2019-01-16T12:48:22.454Z,7.010498
2019-01-16T12:51:50.342Z,6.990356
2019-01-16T12:55:18.229Z,6.970215
2019-01-16T12:58:46.158Z,6.970215
2019-01-16T13:02:14.028Z,6.970215
2019-01-16T13:05:41.926Z,6.960144
2019-01-16T13:09:09.847Z,6.970215
2019-01-16T13:12:37.710Z,7.000427
2019-01-16T13:16:05.612Z,7.010498
2019-01-16T13:19:33.517Z,7.010498
2019-01-16T13:23:01.388Z,7.000427
2019-01-16T13:26:29.270Z,7.010498
2019-01-16T13:29:57.171Z,7.000427
2019-01-16T13:33:26.034Z,7.04071
2019-01-16T13:36:53.918Z,7.060852
2019-01-16T13:40:22.767Z,7.04071
2019-01-16T13:43:50.648Z,7.010498
2019-01-16T13:47:18.542Z,7.000427
2019-01-16T13:50:46.467Z,6.919861
2019-01-16T13:54:15.357Z,6.889648
2019-01-16T13:57:43.252Z,6.849365
2019-01-16T14:01:12.121Z,6.809082
2019-01-16T14:04:40.017Z,6.728516
2019-01-16T14:08:07.922Z,6.698303
2019-01-16T14:11:35.796Z,6.678162
2019-01-16T14:15:04.674Z,6.668091
2019-01-16T14:18:32.575Z,6.647949
2019-01-16T14:22:00.501Z,6.607666
2019-01-16T14:25:28.615Z,6.597595
2019-01-16T14:28:56.509Z,6.567383
2019-01-16T14:32:24.377Z,6.557312
2019-01-16T14:35:52.256Z,6.547241
2019-01-16T14:39:20.149Z,6.547241
2019-01-16T14:42:48.036Z,6.557312
2019-01-16T14:46:15.911Z,6.557312
2019-01-16T14:49:43.796Z,6.567383
2019-01-16T14:53:12.657Z,6.597595
2019-01-16T14:56:40.538Z,6.597595
2019-01-16T15:00:08.444Z,6.607666
2019-01-16T15:03:36.304Z,6.637878
2019-01-16T15:07:04.176Z,6.678162
2019-01-16T15:10:32.069Z,6.678162
2019-01-16T15:13:59.958Z,6.647949
2019-01-16T15:17:27.825Z,6.627808
2019-01-16T15:20:55.700Z,6.607666
2019-01-16T15:24:23.603Z,6.607666
2019-01-16T15:27:51.528Z,6.627808
2019-01-16T15:31:20.498Z,6.637878
2019-01-16T15:34:48.386Z,6.668091
2019-01-16T15:38:16.271Z,6.627808
2019-01-16T15:41:44.135Z,6.607666
2019-01-16T15:45:12.018Z,6.627808
2019-01-16T15:48:39.905Z,6.637878
2019-01-16T15:52:12.913Z,6.627808
2019-01-16T15:55:39.626Z,6.597595
2019-01-16T15:59:07.514Z,6.607666
2019-01-16T16:02:35.386Z,6.597595
2019-01-16T16:06:05.251Z,6.597595
2019-01-16T16:09:33.141Z,6.597595
2019-01-16T16:13:01.010Z,6.607666
2019-01-16T16:16:28.897Z,6.627808
2019-01-16T16:19:56.778Z,6.637878
2019-01-16T16:23:24.645Z,6.678162
2019-01-16T16:26:52.532Z,6.647949
2019-01-16T16:30:20.420Z,6.637878
2019-01-16T16:33:48.292Z,6.627808
2019-01-16T16:37:16.173Z,6.627808
2019-01-16T16:40:44.065Z,6.607666
2019-01-16T16:44:11.943Z,6.607666
2019-01-16T16:47:39.829Z,6.597595
2019-01-16T16:51:07.719Z,6.567383
2019-01-16T16:54:35.604Z,6.567383
2019-01-16T16:58:03.475Z,6.557312
2019-01-16T17:01:31.371Z,6.557312
2019-01-16T17:04:59.255Z,6.547241
2019-01-16T17:08:27.120Z,6.557312
2019-01-16T17:11:55.008Z,6.547241
2019-01-16T17:15:22.920Z,6.557312
2019-01-16T17:18:51.778Z,6.557312
2019-01-16T17:22:19.668Z,6.547241
2019-01-16T17:25:48.575Z,6.496887
2019-01-16T17:29:16.449Z,6.496887
2019-01-16T17:32:44.342Z,6.517029
2019-01-16T17:36:13.615Z,6.547241
2019-01-16T17:39:42.075Z,6.557312
2019-01-16T17:43:09.957Z,6.557312
2019-01-16T17:46:37.852Z,6.557312
2019-01-16T17:50:05.727Z,6.607666
2019-01-16T17:53:33.612Z,6.627808
2019-01-16T17:57:01.503Z,6.607666
2019-01-16T18:00:29.375Z,6.597595
2019-01-16T18:03:57.277Z,6.607666
2019-01-16T18:07:25.160Z,6.607666
2019-01-16T18:10:53.029Z,6.627808
2019-01-16T18:14:21.907Z,6.597595
2019-01-16T18:17:50.792Z,6.557312
2019-01-16T18:21:18.666Z,6.547241
2019-01-16T18:24:46.558Z,6.547241
2019-01-16T18:28:16.415Z,6.466675
2019-01-16T18:31:44.298Z,6.426392
2019-01-16T18:35:12.203Z,6.416321
2019-01-16T18:38:40.112Z,6.416321
2019-01-16T18:42:08.010Z,6.396179
2019-01-16T18:45:35.894Z,6.416321
2019-01-16T18:49:03.782Z,6.376038
2019-01-16T18:52:32.680Z,6.315613
2019-01-16T18:56:00.564Z,6.305542
2019-01-16T18:59:28.477Z,6.27533
2019-01-16T19:02:56.358Z,6.27533
2019-01-16T19:06:24.232Z,6.265259
2019-01-16T19:09:52.150Z,6.265259
2019-01-16T19:13:20.050Z,6.214905
2019-01-16T19:16:47.923Z,6.214905
2019-01-16T19:20:15.825Z,6.214905
2019-01-16T19:23:43.740Z,6.184692
2019-01-16T19:27:11.638Z,6.184692
2019-01-16T19:30:39.532Z,6.164551
2019-01-16T19:34:07.428Z,6.134338
2019-01-16T19:37:35.297Z,6.114197
2019-01-16T19:41:03.193Z,6.094055
2019-01-16T19:44:32.081Z,6.063843
2019-01-16T19:48:00.007Z,6.053772
2019-01-16T19:51:27.899Z,6.053772
2019-01-16T19:54:56.892Z,6.003418
2019-01-16T19:58:25.865Z,6.003418
2019-01-16T20:01:53.810Z,6.02356
2019-01-16T20:05:21.738Z,5.983276
2019-01-16T20:08:50.608Z,5.983276
2019-01-16T20:12:18.511Z,5.983276
2019-01-16T20:15:46.503Z,6.003418
2019-01-16T20:19:14.445Z,5.973206
2019-01-16T20:22:42.357Z,5.983276
2019-01-16T20:26:10.301Z,5.953064
2019-01-16T20:29:38.280Z,5.942993
2019-01-16T20:33:06.236Z,5.942993
2019-01-16T20:36:34.192Z,5.882568
2019-01-16T20:40:02.090Z,5.872498
2019-01-16T20:43:30.082Z,5.842285
2019-01-16T20:46:57.969Z,5.822144
2019-01-16T20:50:25.866Z,5.791931
2019-01-16T20:53:53.748Z,5.751648
2019-01-16T20:57:21.643Z,5.661011
2019-01-16T21:00:49.543Z,5.620728
2019-01-16T21:04:17.439Z,5.570374
2019-01-16T21:07:45.395Z,5.509949
2019-01-16T21:11:13.432Z,5.499878
2019-01-16T21:14:41.499Z,5.479736
2019-01-16T21:18:09.382Z,5.439453
2019-01-16T21:21:37.270Z,5.368958
2019-01-16T21:25:05.310Z,5.338745
2019-01-16T21:28:36.151Z,5.298462
2019-01-16T21:32:04.052Z,5.288391
2019-01-16T21:35:31.920Z,5.217896
2019-01-16T21:39:00.799Z,5.187683
2019-01-16T21:42:28.699Z,5.177612
2019-01-16T21:45:56.591Z,5.117188
2019-01-16T21:49:24.469Z,5.107117
2019-01-16T21:52:52.356Z,5.056763
2019-01-16T21:56:20.254Z,5.036621
2019-01-16T21:59:48.149Z,5.02655
2019-01-16T22:03:16.022Z,4.996338
2019-01-16T22:06:43.905Z,4.996338
2019-01-16T22:10:11.792Z,4.956055
2019-01-16T22:13:39.670Z,4.935913
2019-01-16T22:17:07.567Z,4.905701
2019-01-16T22:20:35.449Z,4.905701
2019-01-16T22:24:03.325Z,4.905701
2019-01-16T22:27:31.227Z,4.885559
2019-01-16T22:30:59.110Z,4.855347
2019-01-16T22:34:26.989Z,4.855347
2019-01-16T22:37:54.878Z,4.845276
2019-01-16T22:41:22.774Z,4.825134
2019-01-16T22:44:50.653Z,4.815063
2019-01-16T22:48:19.531Z,4.784851
2019-01-16T22:51:47.426Z,4.77478
2019-01-16T22:55:15.407Z,4.754639
2019-01-16T22:58:43.336Z,4.714355
